Flugplatz Fulda-Jossa (EDGF)

Hier findest Du alle Informationen zum Flugplatz Fulda-Jossa (EDGF).

Informationen für Piloten zum Flugplatz Fulda-Jossa

Hier findest Du alle relevanten Informationen, die Du als Pilot benötigst, um Fulda-Jossa anzufliegen.

Flugplatz: Fulda-Jossa ICAO-Code: EDGF
Frequenz Turm: 122,400 Mhz GAFOR Gebiet: 43
Frequenz Ground: 122,400 Mhz Mogas: nein
Platzrunde: S 2500 ft Landegebühr: -
Platzhöhe: - Sunrise: 05:13 Uhr UTC
Pisten: 08/26 - 588 m x 30 m, GRAS Sunset: 17:13 Uhr UTC

Mitglieder, die in Fulda-Jossa fliegen

Flugwetter am Flugplatz Fulda-Jossa

Die METAR Information stammen aus EDDF (79.08 km entfernt).

METAR Code:
2021/08/19 09:50
EDDF 190950Z 22012KT 9999 FEW019 21/15 Q1016 NOSIG

Flugschulen am Flugplatz Fulda-Jossa

Am Flugplatz Fulda-Jossa gibt es leider keine Flugschule.

Benachbarte Flugplätze und Flugschulen

Es gibt 11 weitere Flugplätze in einem Umkreis von 50 km um den Flugplatz Fulda-Jossa.

Jetzt anmelden

Passwort vergessen

Umfrage Archiv

Wie habt Ihr Eure UL-Lizenz erworben?

Ausbildung als Fußgänger
69 %
Umschulung von Motorflug
17.2 %
Umschulung von Segelflug
13.8 %
Umschulung von Helikopter
0 %
Stimmen: 87 | Diskussion
Anzeige: Roland Aircraft
Statistik Alle Mitglieder

Aktuell sind 59 Besucher online, davon 4 Mitglieder und 55 Gäste.


Mitglieder online:
slintes  Nordex  MikeMarkus  Heli 

Anzeige: VFR Sprechfunk Simulator Anzeige: Pocket FMS